createdAt,value
2023-05-15T00:00:17.785Z,5.20
2023-05-15T00:03:20.439Z,4.70
2023-05-15T00:06:23.263Z,4.53
2023-05-15T00:09:25.645Z,4.62
2023-05-15T00:12:27.683Z,5.15
2023-05-15T00:15:29.678Z,4.28
2023-05-15T00:18:31.887Z,4.77
2023-05-15T00:21:33.959Z,4.53
2023-05-15T00:24:35.935Z,4.87
2023-05-15T00:27:37.971Z,4.97
2023-05-15T00:30:39.825Z,4.45
2023-05-15T00:33:41.900Z,4.17
2023-05-15T00:36:44.559Z,4.43
2023-05-15T00:39:46.509Z,4.70
2023-05-15T00:42:48.733Z,5.15
2023-05-15T00:45:52.807Z,4.18
2023-05-15T00:48:56.355Z,4.45
2023-05-15T00:52:02.112Z,4.40
2023-05-15T00:55:05.199Z,4.12
2023-05-15T00:58:08.354Z,4.25
2023-05-15T01:01:11.224Z,4.75
2023-05-15T01:04:13.226Z,4.30
2023-05-15T01:07:15.399Z,4.40
2023-05-15T01:10:19.610Z,4.82
2023-05-15T01:13:23.112Z,4.65
2023-05-15T01:16:25.089Z,5.40
2023-05-15T01:19:27.379Z,5.30
2023-05-15T01:22:45.216Z,4.83
2023-05-15T01:26:10.361Z,4.97
2023-05-15T01:29:24.453Z,5.50
2023-05-15T01:32:47.232Z,4.78
2023-05-15T01:35:59.268Z,5.60
2023-05-15T01:39:03.892Z,5.30
2023-05-15T01:42:11.070Z,4.95
2023-05-15T01:45:14.101Z,5.18
2023-05-15T01:48:18.672Z,4.93
2023-05-15T01:51:22.447Z,5.53
2023-05-15T01:54:24.988Z,5.70
2023-05-15T01:57:28.197Z,5.43
2023-05-15T02:00:31.293Z,6.07
2023-05-15T02:03:37.054Z,6.07
2023-05-15T02:06:41.053Z,5.47
2023-05-15T02:09:44.266Z,5.43
2023-05-15T02:12:46.737Z,5.82
2023-05-15T02:15:48.783Z,5.95
2023-05-15T02:18:52.817Z,6.00
2023-05-15T02:21:54.828Z,6.35
2023-05-15T02:24:56.892Z,5.40
2023-05-15T02:28:01.412Z,5.95
2023-05-15T02:31:18.236Z,6.25
2023-05-15T02:34:44.878Z,5.32
2023-05-15T02:37:52.341Z,5.50
2023-05-15T02:40:55.779Z,5.07
2023-05-15T02:44:00.292Z,5.82
2023-05-15T02:47:03.824Z,4.87
2023-05-15T02:50:07.129Z,5.10
2023-05-15T02:53:09.990Z,5.70
2023-05-15T02:56:11.922Z,5.40
2023-05-15T02:59:18.809Z,6.28
2023-05-15T03:02:20.892Z,6.10
2023-05-15T03:05:23.151Z,5.37
2023-05-15T03:08:25.375Z,5.37
2023-05-15T03:11:27.216Z,5.60
2023-05-15T03:14:29.106Z,4.60
2023-05-15T03:17:31.229Z,4.82
2023-05-15T03:20:33.087Z,4.70
2023-05-15T03:23:37.138Z,5.60
2023-05-15T03:26:42.468Z,4.87
2023-05-15T03:29:44.456Z,5.00
2023-05-15T03:32:46.516Z,5.07
2023-05-15T03:35:48.421Z,5.00
2023-05-15T03:38:50.335Z,5.37
2023-05-15T03:41:52.218Z,4.60
2023-05-15T03:44:54.130Z,5.10
2023-05-15T03:47:56.086Z,5.40
2023-05-15T03:50:58.187Z,4.53
2023-05-15T03:54:00.138Z,4.73
2023-05-15T03:57:02.218Z,4.10
2023-05-15T04:00:10.077Z,4.70
2023-05-15T04:03:12.457Z,4.05
2023-05-15T04:06:14.532Z,4.18
2023-05-15T04:09:16.510Z,4.10
2023-05-15T04:12:18.434Z,3.27
2023-05-15T04:15:27.120Z,3.80
2023-05-15T04:18:29.185Z,3.85
2023-05-15T04:21:31.091Z,3.45
2023-05-15T04:24:33.073Z,3.77
2023-05-15T04:27:36.616Z,3.33
2023-05-15T04:30:38.528Z,2.97
2023-05-15T04:33:40.498Z,3.72
2023-05-15T04:36:43.030Z,3.30
2023-05-15T04:39:45.060Z,3.70
2023-05-15T04:42:46.955Z,3.60
2023-05-15T04:45:49.016Z,3.30
2023-05-15T04:48:51.091Z,3.10
2023-05-15T04:51:52.954Z,3.30
2023-05-15T04:54:56.123Z,3.83
2023-05-15T04:57:58.248Z,3.43
2023-05-15T05:01:03.514Z,3.10
2023-05-15T05:04:06.097Z,3.10
2023-05-15T05:07:08.334Z,3.40
2023-05-15T05:10:10.588Z,3.45
2023-05-15T05:13:12.473Z,3.37
2023-05-15T05:16:14.383Z,3.35
2023-05-15T05:19:16.359Z,2.60
2023-05-15T05:22:19.408Z,2.53
2023-05-15T05:25:21.474Z,3.25
2023-05-15T05:28:23.438Z,3.03
2023-05-15T05:31:25.459Z,3.17
2023-05-15T05:34:27.482Z,2.65
2023-05-15T05:37:29.461Z,2.65
2023-05-15T05:40:31.725Z,2.85
2023-05-15T05:43:33.653Z,3.93
2023-05-15T05:46:35.910Z,2.53
2023-05-15T05:49:37.800Z,2.67
2023-05-15T05:52:39.708Z,2.45
2023-05-15T05:55:41.647Z,3.12
2023-05-15T05:58:43.624Z,2.87
2023-05-15T06:01:45.584Z,2.47
2023-05-15T06:04:47.559Z,2.62
2023-05-15T06:07:50.170Z,2.60
2023-05-15T06:10:52.692Z,3.10
2023-05-15T06:13:54.601Z,4.80
2023-05-15T06:16:56.807Z,3.30
2023-05-15T06:19:58.937Z,3.80
2023-05-15T06:23:01.112Z,3.20
2023-05-15T06:26:04.527Z,3.37
2023-05-15T06:29:07.002Z,2.50
2023-05-15T06:32:09.302Z,2.22
2023-05-15T06:35:11.312Z,2.10
2023-05-15T06:38:13.284Z,2.42
2023-05-15T06:41:15.180Z,2.40
2023-05-15T06:44:17.198Z,2.23
2023-05-15T06:47:19.139Z,2.17
2023-05-15T06:50:21.280Z,3.22
2023-05-15T06:53:23.417Z,2.30
2023-05-15T06:56:25.690Z,2.10
2023-05-15T06:59:27.637Z,2.53
2023-05-15T07:02:30.262Z,2.67
2023-05-15T07:05:32.577Z,2.92
2023-05-15T07:08:34.766Z,3.08
2023-05-15T07:11:38.926Z,2.50
2023-05-15T07:14:40.955Z,2.50
2023-05-15T07:17:43.054Z,2.45
2023-05-15T07:20:45.236Z,2.10
2023-05-15T07:23:47.262Z,1.60
2023-05-15T07:26:58.329Z,2.40
2023-05-15T07:30:02.523Z,1.70
2023-05-15T07:33:04.611Z,1.80
2023-05-15T07:36:06.711Z,1.92
2023-05-15T07:39:08.826Z,1.70
2023-05-15T07:42:11.012Z,1.83
2023-05-15T07:45:13.017Z,1.90
2023-05-15T07:48:16.466Z,1.95
2023-05-15T07:51:18.459Z,1.80
2023-05-15T07:54:21.020Z,1.95
2023-05-15T07:57:23.280Z,1.48
2023-05-15T08:00:25.294Z,1.93
2023-05-15T08:03:27.219Z,2.30
2023-05-15T08:06:29.190Z,2.00
2023-05-15T08:09:31.072Z,2.10
2023-05-15T08:12:33.253Z,1.90
2023-05-15T08:15:35.236Z,1.87
2023-05-15T08:18:37.473Z,1.50
2023-05-15T08:21:39.487Z,1.65
2023-05-15T08:24:42.000Z,1.62
2023-05-15T08:27:43.988Z,1.90
2023-05-15T08:30:46.024Z,1.73
2023-05-15T08:33:48.105Z,1.98
2023-05-15T08:36:50.260Z,1.80
2023-05-15T08:39:52.205Z,2.30
2023-05-15T08:42:55.711Z,2.03
2023-05-15T08:45:58.326Z,2.10
2023-05-15T08:49:06.994Z,1.98
2023-05-15T08:52:09.542Z,2.90
2023-05-15T08:55:11.897Z,1.95
2023-05-15T08:58:14.335Z,2.12
2023-05-15T09:01:17.052Z,1.77
2023-05-15T09:04:19.495Z,1.30
2023-05-15T09:07:21.990Z,1.80
2023-05-15T09:10:24.244Z,1.70
2023-05-15T09:13:26.240Z,1.60
2023-05-15T09:16:28.390Z,1.60
2023-05-15T09:19:31.033Z,1.40
2023-05-15T09:22:36.473Z,1.20
2023-05-15T09:25:41.715Z,1.30
2023-05-15T09:28:44.038Z,1.90
2023-05-15T09:31:48.923Z,1.10
2023-05-15T09:34:50.961Z,1.02
2023-05-15T09:38:00.422Z,0.85
2023-05-15T09:41:07.659Z,1.10
2023-05-15T09:44:27.611Z,1.52
2023-05-15T09:47:29.904Z,1.10
2023-05-15T09:50:36.785Z,1.20
2023-05-15T09:53:38.966Z,1.30
2023-05-15T09:56:43.391Z,1.12
2023-05-15T09:59:49.315Z,1.25
2023-05-15T10:02:51.325Z,1.30
2023-05-15T10:06:01.176Z,1.00
2023-05-15T10:09:04.702Z,0.90
2023-05-15T10:12:09.476Z,1.00
2023-05-15T10:15:11.985Z,1.37
2023-05-15T10:18:15.095Z,1.10
2023-05-15T10:21:18.484Z,1.30
2023-05-15T10:24:21.386Z,1.30
2023-05-15T10:27:23.954Z,1.08
2023-05-15T10:30:26.915Z,1.20
2023-05-15T10:33:29.942Z,1.10
2023-05-15T10:36:33.370Z,1.02
2023-05-15T10:39:38.478Z,0.90
2023-05-15T10:42:43.293Z,1.02
2023-05-15T10:45:46.101Z,1.33
2023-05-15T10:48:48.164Z,0.87
2023-05-15T10:51:50.197Z,0.85
2023-05-15T10:54:56.935Z,1.00
2023-05-15T10:57:59.027Z,1.00
2023-05-15T11:01:01.087Z,0.90
2023-05-15T11:04:19.329Z,1.10
2023-05-15T11:07:21.653Z,1.10
2023-05-15T11:10:29.774Z,1.02
2023-05-15T11:14:05.907Z,0.93
2023-05-15T11:17:12.307Z,1.33
2023-05-15T11:20:14.443Z,0.90
2023-05-15T11:23:21.897Z,0.85
2023-05-15T11:26:33.446Z,0.95
2023-05-15T11:29:35.593Z,1.10
2023-05-15T11:32:47.021Z,1.00
2023-05-15T11:35:49.676Z,1.00
2023-05-15T11:38:52.881Z,1.10
2023-05-15T11:41:55.269Z,0.93
2023-05-15T11:44:57.195Z,0.90
2023-05-15T11:48:04.018Z,0.90
2023-05-15T11:51:13.748Z,0.80
2023-05-15T11:54:16.865Z,1.40
2023-05-15T11:57:20.248Z,1.20
2023-05-15T12:00:22.487Z,0.88
2023-05-15T12:03:34.196Z,1.23
2023-05-15T12:06:36.563Z,1.00
2023-05-15T12:09:40.261Z,0.90
2023-05-15T12:12:44.029Z,0.80
2023-05-15T12:15:47.168Z,1.00
2023-05-15T12:18:50.234Z,1.60
2023-05-15T12:21:52.506Z,0.80
2023-05-15T12:24:58.880Z,0.90
2023-05-15T12:28:02.862Z,0.90
2023-05-15T12:31:05.277Z,0.90
2023-05-15T12:34:07.635Z,0.80
2023-05-15T12:37:13.613Z,1.10
2023-05-15T12:40:20.070Z,0.70
2023-05-15T12:43:25.275Z,0.70
2023-05-15T12:46:31.860Z,0.68
2023-05-15T12:49:36.828Z,0.80
2023-05-15T12:52:39.007Z,0.73
2023-05-15T12:55:41.608Z,0.70
2023-05-15T12:58:43.530Z,0.95
2023-05-15T13:01:45.684Z,0.70
2023-05-15T13:04:48.743Z,0.70
2023-05-15T13:07:52.014Z,0.70
2023-05-15T13:11:00.045Z,0.73
2023-05-15T13:14:09.302Z,0.80
2023-05-15T13:17:11.684Z,0.70
2023-05-15T13:20:13.669Z,0.90
2023-05-15T13:23:19.354Z,1.00
2023-05-15T13:26:21.840Z,0.82
2023-05-15T13:29:23.771Z,1.00
2023-05-15T13:32:25.855Z,0.80
2023-05-15T13:35:28.544Z,0.80
2023-05-15T13:38:30.682Z,0.90
2023-05-15T13:41:32.630Z,1.00
2023-05-15T13:44:35.947Z,0.80
2023-05-15T13:47:40.723Z,0.60
2023-05-15T13:50:43.410Z,0.70
2023-05-15T13:53:45.363Z,0.57
2023-05-15T13:56:47.265Z,0.80
2023-05-15T13:59:49.404Z,0.82
2023-05-15T14:02:51.305Z,3.28
2023-05-15T14:05:53.918Z,0.82
2023-05-15T14:08:55.736Z,0.97
2023-05-15T14:11:57.640Z,0.82
2023-05-15T14:15:00.722Z,0.70
2023-05-15T14:18:02.642Z,0.70
2023-05-15T14:21:04.604Z,1.23
2023-05-15T14:24:07.035Z,1.00
2023-05-15T14:27:09.148Z,0.62
2023-05-15T14:30:11.473Z,0.70
2023-05-15T14:33:13.364Z,0.80
2023-05-15T14:36:15.839Z,0.70
2023-05-15T14:39:18.746Z,0.90
2023-05-15T14:42:21.509Z,0.90
2023-05-15T14:45:23.617Z,1.10
2023-05-15T14:48:25.873Z,0.90
2023-05-15T14:51:27.815Z,1.60
2023-05-15T14:54:30.088Z,0.90
2023-05-15T14:57:32.559Z,0.90
2023-05-15T15:00:34.587Z,1.10
2023-05-15T15:03:36.671Z,0.80
2023-05-15T15:06:38.572Z,1.10
2023-05-15T15:09:40.587Z,1.20
2023-05-15T15:12:42.520Z,1.00
2023-05-15T15:15:44.525Z,1.00
2023-05-15T15:18:46.507Z,0.90
2023-05-15T15:21:48.579Z,1.35
2023-05-15T15:24:50.541Z,1.07
2023-05-15T15:27:52.936Z,0.90
2023-05-15T15:30:54.901Z,1.00
2023-05-15T15:33:57.860Z,1.30
2023-05-15T15:36:59.753Z,1.00
2023-05-15T15:40:03.099Z,1.10
2023-05-15T15:43:08.742Z,0.80
2023-05-15T15:46:11.575Z,1.20
2023-05-15T15:49:13.552Z,1.00
2023-05-15T15:52:15.717Z,1.00
2023-05-15T15:55:17.656Z,2.17
2023-05-15T15:58:19.897Z,1.00
2023-05-15T16:01:22.403Z,0.90
2023-05-15T16:04:24.420Z,1.00
2023-05-15T16:07:26.295Z,1.00
2023-05-15T16:10:28.228Z,0.90
2023-05-15T16:13:30.389Z,0.90
2023-05-15T16:16:32.354Z,1.00
2023-05-15T16:19:36.439Z,0.90
2023-05-15T16:22:38.421Z,1.00
2023-05-15T16:25:40.490Z,0.90
2023-05-15T16:28:42.670Z,0.60
2023-05-15T16:31:44.997Z,0.90
2023-05-15T16:34:47.135Z,0.70
2023-05-15T16:37:49.361Z,1.00
2023-05-15T16:40:51.451Z,0.80
2023-05-15T16:43:53.476Z,0.90
2023-05-15T16:46:55.625Z,1.30
2023-05-15T16:49:57.655Z,0.98
2023-05-15T16:52:59.744Z,1.37
2023-05-15T16:56:01.859Z,1.07
2023-05-15T16:59:04.053Z,1.10
2023-05-15T17:02:06.024Z,1.37
2023-05-15T17:05:09.288Z,1.20
2023-05-15T17:08:11.576Z,1.00
2023-05-15T17:11:13.562Z,0.90
2023-05-15T17:14:15.580Z,0.90
2023-05-15T17:17:17.529Z,1.05
2023-05-15T17:20:19.568Z,1.00
2023-05-15T17:23:23.065Z,1.55
2023-05-15T17:26:26.226Z,1.17
2023-05-15T17:29:28.128Z,1.00
2023-05-15T17:32:30.467Z,1.00
2023-05-15T17:35:33.360Z,1.05
2023-05-15T17:38:35.942Z,1.25
2023-05-15T17:41:38.295Z,1.07
2023-05-15T17:44:40.309Z,0.85
2023-05-15T17:47:42.897Z,1.27
2023-05-15T17:50:45.150Z,0.90
2023-05-15T17:53:48.149Z,0.80
2023-05-15T17:56:50.292Z,1.10
2023-05-15T17:59:52.559Z,1.15
2023-05-15T18:02:54.727Z,0.80
2023-05-15T18:05:57.139Z,0.90
2023-05-15T18:08:59.383Z,0.82
2023-05-15T18:12:02.017Z,0.70
2023-05-15T18:15:05.349Z,0.70
2023-05-15T18:18:07.951Z,0.70
2023-05-15T18:21:10.544Z,0.60
2023-05-15T18:24:13.418Z,0.80
2023-05-15T18:27:16.835Z,0.90
2023-05-15T18:30:20.159Z,0.65
2023-05-15T18:33:23.745Z,0.90
2023-05-15T18:36:26.820Z,0.57
2023-05-15T18:39:29.652Z,1.10
2023-05-15T18:42:32.770Z,0.80
2023-05-15T18:45:35.724Z,0.75
2023-05-15T18:48:39.123Z,0.62
2023-05-15T18:51:42.177Z,0.52
2023-05-15T18:54:46.137Z,0.60
2023-05-15T18:57:49.116Z,0.57
2023-05-15T19:00:52.312Z,0.52
2023-05-15T19:03:55.138Z,0.62
2023-05-15T19:06:58.085Z,0.70
2023-05-15T19:10:01.203Z,0.80
2023-05-15T19:13:04.159Z,0.70
2023-05-15T19:16:07.820Z,0.70
2023-05-15T19:19:10.849Z,0.82
2023-05-15T19:22:14.359Z,0.50
2023-05-15T19:25:17.442Z,0.70
2023-05-15T19:28:20.643Z,0.70
2023-05-15T19:31:31.269Z,1.00
2023-05-15T19:34:35.561Z,1.02
2023-05-15T19:37:38.509Z,1.00
2023-05-15T19:40:45.146Z,0.90
2023-05-15T19:43:50.913Z,0.60
2023-05-15T19:46:54.671Z,0.80
2023-05-15T19:49:57.690Z,1.10
2023-05-15T19:53:01.126Z,1.17
2023-05-15T19:56:04.922Z,0.82
2023-05-15T19:59:08.996Z,1.00
2023-05-15T20:02:11.623Z,0.90
2023-05-15T20:05:16.143Z,1.08
2023-05-15T20:08:19.502Z,1.30
2023-05-15T20:11:23.688Z,1.08
2023-05-15T20:14:26.805Z,0.77
2023-05-15T20:17:30.162Z,0.60
2023-05-15T20:20:32.565Z,0.50
2023-05-15T20:23:34.566Z,0.60
2023-05-15T20:26:36.537Z,0.43
2023-05-15T20:29:39.230Z,0.40
2023-05-15T20:32:41.372Z,0.50
2023-05-15T20:35:43.697Z,0.50
2023-05-15T20:38:46.897Z,0.30
2023-05-15T20:41:48.967Z,0.40
2023-05-15T20:44:51.689Z,0.50
2023-05-15T20:47:53.611Z,0.50
2023-05-15T20:50:56.086Z,0.45
2023-05-15T20:53:58.084Z,0.60
2023-05-15T20:57:00.046Z,0.50
2023-05-15T21:00:01.988Z,0.70
2023-05-15T21:03:04.249Z,0.50
2023-05-15T21:06:24.901Z,0.60
2023-05-15T21:09:26.869Z,0.50
2023-05-15T21:12:29.077Z,0.60
2023-05-15T21:15:30.988Z,0.50
2023-05-15T21:18:33.076Z,0.60
2023-05-15T21:21:35.543Z,0.50
2023-05-15T21:24:37.476Z,0.80
2023-05-15T21:27:39.493Z,1.20
2023-05-15T21:30:41.576Z,0.90
2023-05-15T21:33:43.500Z,0.90
2023-05-15T21:36:45.631Z,0.90
2023-05-15T21:39:47.523Z,0.80
2023-05-15T21:42:49.383Z,0.85
2023-05-15T21:45:54.347Z,0.90
2023-05-15T21:48:56.315Z,1.08
2023-05-15T21:51:58.343Z,0.90
2023-05-15T21:55:00.488Z,0.62
2023-05-15T21:58:02.422Z,0.90
2023-05-15T22:01:04.382Z,0.90
2023-05-15T22:04:06.519Z,0.90
2023-05-15T22:07:08.687Z,0.88
2023-05-15T22:10:16.667Z,0.68
2023-05-15T22:13:19.119Z,0.80
2023-05-15T22:16:21.075Z,1.03
2023-05-15T22:19:32.723Z,1.00
2023-05-15T22:22:36.024Z,0.80
2023-05-15T22:25:37.972Z,0.70
2023-05-15T22:28:39.949Z,0.80
2023-05-15T22:31:45.455Z,0.70
2023-05-15T22:34:47.511Z,0.77
2023-05-15T22:37:49.508Z,0.80
2023-05-15T22:40:51.911Z,0.85
2023-05-15T22:43:57.296Z,0.93
2023-05-15T22:47:04.155Z,0.73
2023-05-15T22:50:10.961Z,1.08
2023-05-15T22:53:12.982Z,0.75
2023-05-15T22:56:15.989Z,1.20
2023-05-15T22:59:19.157Z,1.02
2023-05-15T23:02:22.289Z,1.00
2023-05-15T23:05:25.182Z,1.00
2023-05-15T23:08:27.098Z,1.15
2023-05-15T23:11:29.001Z,1.08
2023-05-15T23:14:31.309Z,1.08
2023-05-15T23:17:33.272Z,1.00
2023-05-15T23:20:35.239Z,1.00
2023-05-15T23:23:37.097Z,0.90
2023-05-15T23:26:38.957Z,1.00
2023-05-15T23:29:40.801Z,1.15
2023-05-15T23:32:42.858Z,1.03
2023-05-15T23:35:44.782Z,1.20
2023-05-15T23:38:46.672Z,1.40
2023-05-15T23:41:48.496Z,1.30
2023-05-15T23:44:51.224Z,1.15
2023-05-15T23:47:53.235Z,1.13
2023-05-15T23:50:55.175Z,1.40
2023-05-15T23:53:57.106Z,1.10
2023-05-15T23:56:58.998Z,1.55
